Time;durP1;ratioP1;P1;durP2;ratioP2;P2;SDS_P1;SDS_P2;PMS_P1;PMS_P2;Temp;Humidity;BMP_temperature;BMP_pressure;BME280_temperature;BME280_humidity;BME280_pressure;Samples;Min_cycle;Max_cycle;Signal;HPM_P1;HPM_P2
2022/08/07 00:00:03;;;;;;;0.2;0.2;;;;;;;17.3;100.0;102400;;;;
2022/08/07 00:01:10;;;;;;;0.2;0.2;;;;;;;17.3;100.0;102400;;;;
2022/08/07 00:02:10;;;;;;;0.2;0.2;;;;;;;17.2;100.0;102400;;;;
2022/08/07 00:03:02;;;;;;;0.2;0.2;;;;;;;17.2;100.0;102400;;;;
2022/08/07 00:04:03;;;;;;;0.2;0.2;;;;;;;17.1;100.0;102400;;;;
2022/08/07 00:05:00;;;;;;;0.2;0.2;;;;;;;17.1;100.0;102400;;;;
2022/08/07 00:06:00;;;;;;;0.2;0.2;;;;;;;17.2;100.0;102390;;;;
2022/08/07 00:07:05;;;;;;;0.3;0.3;;;;;;;17.2;100.0;102390;;;;
2022/08/07 00:08:02;;;;;;;0.3;0.3;;;;;;;17.1;100.0;102390;;;;
2022/08/07 00:09:10;;;;;;;0.3;0.3;;;;;;;17.1;100.0;102390;;;;
2022/08/07 00:10:10;;;;;;;0.3;0.3;;;;;;;17.1;100.0;102390;;;;
2022/08/07 00:11:00;;;;;;;0.3;0.3;;;;;;;17.1;100.0;102390;;;;
2022/08/07 00:12:00;;;;;;;0.3;0.3;;;;;;;17.1;100.0;102390;;;;
2022/08/07 00:13:09;;;;;;;0.3;0.3;;;;;;;17.1;100.0;102390;;;;
2022/08/07 00:14:01;;;;;;;0.3;0.3;;;;;;;17.1;100.0;102390;;;;
2022/08/07 00:15:00;;;;;;;0.3;0.3;;;;;;;17.1;100.0;102390;;;;
2022/08/07 00:16:00;;;;;;;0.3;0.3;;;;;;;17.0;100.0;102390;;;;
2022/08/07 00:17:02;;;;;;;0.3;0.3;;;;;;;17.0;100.0;102390;;;;
2022/08/07 00:18:01;;;;;;;0.3;0.3;;;;;;;17.1;100.0;102390;;;;
2022/08/07 00:19:05;;;;;;;0.3;0.3;;;;;;;17.1;100.0;102390;;;;
2022/08/07 00:20:03;;;;;;;0.3;0.3;;;;;;;17.0;100.0;102390;;;;
2022/08/07 00:21:08;;;;;;;0.3;0.3;;;;;;;17.0;100.0;102390;;;;
2022/08/07 00:22:03;;;;;;;0.3;0.3;;;;;;;16.8;100.0;102390;;;;
2022/08/07 00:23:00;;;;;;;0.3;0.3;;;;;;;16.8;100.0;102390;;;;
2022/08/07 00:24:00;;;;;;;0.3;0.3;;;;;;;16.8;100.0;102390;;;;
2022/08/07 00:25:02;;;;;;;0.3;0.3;;;;;;;16.8;100.0;102390;;;;
2022/08/07 00:26:10;;;;;;;0.3;0.3;;;;;;;16.9;100.0;102380;;;;
2022/08/07 00:27:09;;;;;;;0.3;0.3;;;;;;;16.9;100.0;102380;;;;
2022/08/07 00:28:00;;;;;;;0.3;0.3;;;;;;;16.9;100.0;102380;;;;
2022/08/07 00:29:00;;;;;;;0.3;0.3;;;;;;;16.9;100.0;102380;;;;
2022/08/07 00:30:00;;;;;;;0.3;0.3;;;;;;;16.8;100.0;102380;;;;
2022/08/07 00:31:05;;;;;;;0.3;0.3;;;;;;;16.8;100.0;102380;;;;
2022/08/07 00:32:01;;;;;;;0.3;0.3;;;;;;;16.8;100.0;102380;;;;
2022/08/07 00:33:00;;;;;;;0.3;0.3;;;;;;;16.8;100.0;102380;;;;
2022/08/07 00:34:00;;;;;;;0.3;0.3;;;;;;;16.8;100.0;102380;;;;
2022/08/07 00:35:00;;;;;;;0.3;0.3;;;;;;;16.8;100.0;102380;;;;
2022/08/07 00:36:00;;;;;;;0.3;0.3;;;;;;;16.7;100.0;102370;;;;
2022/08/07 00:37:00;;;;;;;0.3;0.3;;;;;;;16.7;100.0;102370;;;;
2022/08/07 00:38:00;;;;;;;0.3;0.3;;;;;;;16.8;100.0;102370;;;;
2022/08/07 00:39:01;;;;;;;0.3;0.3;;;;;;;16.8;100.0;102370;;;;
2022/08/07 00:40:00;;;;;;;0.3;0.3;;;;;;;16.8;100.0;102370;;;;
2022/08/07 00:41:00;;;;;;;0.3;0.3;;;;;;;16.8;100.0;102370;;;;
2022/08/07 00:42:05;;;;;;;0.3;0.3;;;;;;;16.5;100.0;102370;;;;
2022/08/07 00:43:00;;;;;;;0.3;0.3;;;;;;;16.5;100.0;102370;;;;
2022/08/07 00:44:03;;;;;;;0.3;0.3;;;;;;;16.5;100.0;102370;;;;
2022/08/07 00:45:00;;;;;;;0.3;0.3;;;;;;;16.5;100.0;102370;;;;
2022/08/07 00:46:02;;;;;;;0.3;0.3;;;;;;;16.6;100.0;102360;;;;
2022/08/07 00:47:01;;;;;;;0.6;0.6;;;;;;;16.6;100.0;102360;;;;
2022/08/07 00:48:10;;;;;;;0.6;0.6;;;;;;;16.7;100.0;102370;;;;
2022/08/07 00:49:02;;;;;;;0.6;0.6;;;;;;;16.7;100.0;102370;;;;
2022/08/07 00:50:10;;;;;;;0.6;0.6;;;;;;;16.7;100.0;102360;;;;
2022/08/07 00:51:01;;;;;;;0.6;0.6;;;;;;;16.7;100.0;102360;;;;
2022/08/07 00:52:00;;;;;;;0.6;0.6;;;;;;;16.6;100.0;102360;;;;
2022/08/07 00:53:00;;;;;;;0.6;0.6;;;;;;;16.6;100.0;102360;;;;
2022/08/07 00:54:00;;;;;;;0.6;0.6;;;;;;;16.6;100.0;102360;;;;
2022/08/07 00:55:10;;;;;;;0.6;0.6;;;;;;;16.6;100.0;102360;;;;
2022/08/07 00:56:03;;;;;;;0.6;0.6;;;;;;;16.6;100.0;102360;;;;
2022/08/07 00:57:01;;;;;;;0.6;0.6;;;;;;;16.6;100.0;102360;;;;
2022/08/07 00:58:00;;;;;;;0.6;0.6;;;;;;;16.6;100.0;102360;;;;
2022/08/07 00:59:00;;;;;;;0.6;0.6;;;;;;;16.6;100.0;102360;;;;
2022/08/07 01:00:03;;;;;;;0.6;0.6;;;;;;;16.6;100.0;102360;;;;
2022/08/07 01:01:00;;;;;;;0.6;0.6;;;;;;;16.6;100.0;102360;;;;
2022/08/07 01:02:01;;;;;;;0.6;0.6;;;;;;;16.5;100.0;102350;;;;
2022/08/07 01:03:01;;;;;;;0.6;0.6;;;;;;;16.5;100.0;102350;;;;
2022/08/07 01:04:07;;;;;;;0.6;0.6;;;;;;;16.5;100.0;102350;;;;
2022/08/07 01:05:13;;;;;;;0.6;0.6;;;;;;;16.5;100.0;102350;;;;
2022/08/07 01:06:02;;;;;;;0.6;0.6;;;;;;;16.5;100.0;102350;;;;
2022/08/07 01:07:00;;;;;;;0.4;0.4;;;;;;;16.5;100.0;102350;;;;
2022/08/07 01:08:00;;;;;;;0.4;0.4;;;;;;;16.4;100.0;102350;;;;
2022/08/07 01:09:02;;;;;;;0.4;0.4;;;;;;;16.4;100.0;102350;;;;
2022/08/07 01:10:10;;;;;;;0.4;0.4;;;;;;;16.4;100.0;102350;;;;
2022/08/07 01:11:10;;;;;;;0.4;0.4;;;;;;;16.4;100.0;102350;;;;
2022/08/07 01:12:10;;;;;;;0.4;0.4;;;;;;;16.4;100.0;102350;;;;
2022/08/07 01:13:02;;;;;;;0.4;0.4;;;;;;;16.4;100.0;102350;;;;
2022/08/07 01:14:00;;;;;;;0.4;0.4;;;;;;;16.4;100.0;102350;;;;
2022/08/07 01:15:01;;;;;;;0.4;0.4;;;;;;;16.4;100.0;102350;;;;
2022/08/07 01:16:06;;;;;;;0.4;0.4;;;;;;;16.3;100.0;102350;;;;
2022/08/07 01:17:04;;;;;;;0.4;0.4;;;;;;;16.3;100.0;102350;;;;
2022/08/07 01:18:01;;;;;;;0.4;0.4;;;;;;;16.3;100.0;102350;;;;
2022/08/07 01:19:00;;;;;;;0.4;0.4;;;;;;;16.3;100.0;102350;;;;
2022/08/07 01:20:04;;;;;;;0.4;0.4;;;;;;;16.3;100.0;102340;;;;
2022/08/07 01:21:15;;;;;;;0.4;0.4;;;;;;;16.3;100.0;102340;;;;
2022/08/07 01:22:03;;;;;;;0.4;0.4;;;;;;;16.3;100.0;102340;;;;
2022/08/07 01:23:11;;;;;;;0.4;0.4;;;;;;;16.3;100.0;102340;;;;
2022/08/07 01:24:00;;;;;;;0.4;0.4;;;;;;;16.3;100.0;102340;;;;
2022/08/07 01:25:05;;;;;;;0.4;0.4;;;;;;;16.3;100.0;102340;;;;
2022/08/07 01:26:00;;;;;;;0.4;0.4;;;;;;;16.2;100.0;102340;;;;
2022/08/07 01:27:00;;;;;;;0.4;0.4;;;;;;;16.2;100.0;102340;;;;
2022/08/07 01:28:00;;;;;;;0.4;0.4;;;;;;;16.3;100.0;102340;;;;
2022/08/07 01:29:00;;;;;;;0.4;0.4;;;;;;;16.3;100.0;102340;;;;
2022/08/07 01:30:01;;;;;;;0.4;0.4;;;;;;;16.2;100.0;102340;;;;
2022/08/07 01:31:03;;;;;;;0.4;0.4;;;;;;;16.2;100.0;102340;;;;
2022/08/07 01:32:05;;;;;;;0.4;0.4;;;;;;;16.2;100.0;102340;;;;
2022/08/07 01:33:02;;;;;;;0.4;0.4;;;;;;;16.2;100.0;102340;;;;
2022/08/07 01:34:02;;;;;;;0.4;0.4;;;;;;;16.1;100.0;102340;;;;
2022/08/07 01:35:01;;;;;;;0.4;0.4;;;;;;;16.1;100.0;102340;;;;
2022/08/07 01:36:08;;;;;;;0.4;0.4;;;;;;;16.1;100.0;102340;;;;
2022/08/07 01:37:00;;;;;;;0.4;0.4;;;;;;;16.1;100.0;102340;;;;
2022/08/07 01:38:00;;;;;;;0.4;0.4;;;;;;;16.1;100.0;102340;;;;
2022/08/07 01:39:00;;;;;;;0.4;0.4;;;;;;;16.1;100.0;102340;;;;
2022/08/07 01:40:03;;;;;;;0.4;0.4;;;;;;;16.1;100.0;102340;;;;
2022/08/07 01:41:02;;;;;;;0.4;0.4;;;;;;;16.1;100.0;102340;;;;
2022/08/07 01:42:10;;;;;;;0.4;0.4;;;;;;;16.1;100.0;102340;;;;
2022/08/07 01:43:03;;;;;;;0.4;0.4;;;;;;;16.1;100.0;102340;;;;
2022/08/07 01:44:01;;;;;;;0.4;0.4;;;;;;;16.1;100.0;102340;;;;
2022/08/07 01:45:01;;;;;;;0.4;0.4;;;;;;;16.1;100.0;102340;;;;
2022/08/07 01:46:01;;;;;;;0.4;0.4;;;;;;;16.0;100.0;102340;;;;
2022/08/07 01:47:01;;;;;;;0.5;0.5;;;;;;;16.0;100.0;102340;;;;
2022/08/07 01:48:11;;;;;;;0.5;0.5;;;;;;;16.0;100.0;102330;;;;
2022/08/07 01:49:00;;;;;;;0.5;0.5;;;;;;;16.0;100.0;102330;;;;
2022/08/07 01:50:01;;;;;;;0.5;0.5;;;;;;;16.0;100.0;102330;;;;
2022/08/07 01:51:12;;;;;;;0.5;0.5;;;;;;;16.0;100.0;102330;;;;
2022/08/07 01:52:04;;;;;;;0.5;0.5;;;;;;;16.0;100.0;102330;;;;
2022/08/07 01:53:01;;;;;;;0.5;0.5;;;;;;;16.0;100.0;102330;;;;
2022/08/07 01:54:12;;;;;;;0.5;0.5;;;;;;;15.9;100.0;102340;;;;
2022/08/07 01:55:02;;;;;;;0.5;0.5;;;;;;;15.9;100.0;102340;;;;
2022/08/07 01:56:02;;;;;;;0.5;0.5;;;;;;;15.9;100.0;102330;;;;
2022/08/07 01:57:03;;;;;;;0.5;0.5;;;;;;;15.9;100.0;102330;;;;
2022/08/07 01:58:11;;;;;;;0.5;0.5;;;;;;;16.0;100.0;102330;;;;
2022/08/07 01:59:05;;;;;;;0.5;0.5;;;;;;;16.0;100.0;102330;;;;
2022/08/07 02:00:01;;;;;;;0.5;0.5;;;;;;;15.9;100.0;102330;;;;
2022/08/07 02:01:12;;;;;;;0.5;0.5;;;;;;;15.9;100.0;102330;;;;
2022/08/07 02:02:06;;;;;;;0.5;0.5;;;;;;;15.8;100.0;102340;;;;
2022/08/07 02:03:12;;;;;;;0.5;0.5;;;;;;;15.8;100.0;102340;;;;
2022/08/07 02:04:04;;;;;;;0.5;0.5;;;;;;;15.9;100.0;102330;;;;
2022/08/07 02:05:05;;;;;;;0.5;0.5;;;;;;;15.9;100.0;102330;;;;
2022/08/07 02:06:12;;;;;;;0.5;0.5;;;;;;;15.9;100.0;102330;;;;
2022/08/07 02:07:01;;;;;;;0.6;0.6;;;;;;;15.9;100.0;102330;;;;
2022/08/07 02:08:01;;;;;;;0.6;0.6;;;;;;;15.9;100.0;102330;;;;
2022/08/07 02:09:04;;;;;;;0.6;0.6;;;;;;;15.9;100.0;102330;;;;
2022/08/07 02:10:01;;;;;;;0.6;0.6;;;;;;;15.8;100.0;102330;;;;
2022/08/07 02:11:03;;;;;;;0.6;0.6;;;;;;;15.8;100.0;102330;;;;
2022/08/07 02:12:15;;;;;;;0.6;0.6;;;;;;;15.7;100.0;102320;;;;
2022/08/07 02:13:02;;;;;;;0.6;0.6;;;;;;;15.7;100.0;102320;;;;
2022/08/07 02:14:02;;;;;;;0.6;0.6;;;;;;;15.8;100.0;102330;;;;
2022/08/07 02:15:01;;;;;;;0.6;0.6;;;;;;;15.8;100.0;102330;;;;
2022/08/07 02:16:07;;;;;;;0.6;0.6;;;;;;;15.8;100.0;102330;;;;
2022/08/07 02:17:00;;;;;;;0.6;0.6;;;;;;;15.8;100.0;102330;;;;
2022/08/07 02:18:01;;;;;;;0.6;0.6;;;;;;;15.7;100.0;102330;;;;
2022/08/07 02:19:05;;;;;;;0.6;0.6;;;;;;;15.7;100.0;102330;;;;
2022/08/07 02:20:08;;;;;;;0.6;0.6;;;;;;;15.8;100.0;102330;;;;
2022/08/07 02:21:06;;;;;;;0.6;0.6;;;;;;;15.8;100.0;102330;;;;
2022/08/07 02:22:02;;;;;;;0.6;0.6;;;;;;;15.7;100.0;102320;;;;
2022/08/07 02:23:02;;;;;;;0.6;0.6;;;;;;;15.7;100.0;102320;;;;
2022/08/07 02:24:01;;;;;;;0.6;0.6;;;;;;;15.6;100.0;102320;;;;
2022/08/07 02:25:07;;;;;;;0.6;0.6;;;;;;;15.6;100.0;102320;;;;
2022/08/07 02:26:11;;;;;;;0.6;0.6;;;;;;;15.6;100.0;102320;;;;
2022/08/07 02:27:02;;;;;;;0.4;0.4;;;;;;;15.6;100.0;102320;;;;
2022/08/07 02:28:01;;;;;;;0.4;0.4;;;;;;;15.6;100.0;102320;;;;
2022/08/07 02:29:01;;;;;;;0.4;0.4;;;;;;;15.6;100.0;102320;;;;
2022/08/07 02:30:07;;;;;;;0.4;0.4;;;;;;;15.4;100.0;102320;;;;
2022/08/07 02:31:11;;;;;;;0.4;0.4;;;;;;;15.4;100.0;102320;;;;
2022/08/07 02:32:01;;;;;;;0.4;0.4;;;;;;;15.6;100.0;102320;;;;
2022/08/07 02:33:10;;;;;;;0.4;0.4;;;;;;;15.6;100.0;102320;;;;
2022/08/07 02:34:11;;;;;;;0.4;0.4;;;;;;;15.4;100.0;102320;;;;
2022/08/07 02:35:01;;;;;;;0.4;0.4;;;;;;;15.4;100.0;102320;;;;
2022/08/07 02:36:10;;;;;;;0.4;0.4;;;;;;;15.4;100.0;102310;;;;
2022/08/07 02:37:08;;;;;;;0.4;0.4;;;;;;;15.4;100.0;102310;;;;
2022/08/07 02:38:02;;;;;;;0.4;0.4;;;;;;;15.3;100.0;102310;;;;
2022/08/07 02:39:09;;;;;;;0.4;0.4;;;;;;;15.3;100.0;102310;;;;
2022/08/07 02:40:11;;;;;;;0.4;0.4;;;;;;;15.4;100.0;102320;;;;
2022/08/07 02:41:04;;;;;;;0.4;0.4;;;;;;;15.4;100.0;102320;;;;
2022/08/07 02:42:00;;;;;;;0.4;0.4;;;;;;;15.3;100.0;102310;;;;
2022/08/07 02:43:00;;;;;;;0.4;0.4;;;;;;;15.3;100.0;102310;;;;
2022/08/07 02:44:01;;;;;;;0.4;0.4;;;;;;;15.2;100.0;102320;;;;
2022/08/07 02:45:10;;;;;;;0.4;0.4;;;;;;;15.2;100.0;102320;;;;
2022/08/07 02:46:02;;;;;;;0.4;0.4;;;;;;;15.3;100.0;102310;;;;
2022/08/07 02:47:02;;;;;;;0.4;0.4;;;;;;;15.3;100.0;102310;;;;
2022/08/07 02:48:02;;;;;;;0.4;0.4;;;;;;;15.3;100.0;102310;;;;
2022/08/07 02:49:04;;;;;;;0.4;0.4;;;;;;;15.3;100.0;102310;;;;
2022/08/07 02:50:00;;;;;;;0.4;0.4;;;;;;;15.3;100.0;102310;;;;
2022/08/07 02:51:05;;;;;;;0.4;0.4;;;;;;;15.3;100.0;102310;;;;
2022/08/07 02:52:03;;;;;;;0.4;0.4;;;;;;;15.3;100.0;102300;;;;
2022/08/07 02:53:06;;;;;;;0.4;0.4;;;;;;;15.3;100.0;102300;;;;
2022/08/07 02:54:01;;;;;;;0.4;0.4;;;;;;;15.2;100.0;102310;;;;
2022/08/07 02:55:04;;;;;;;0.4;0.4;;;;;;;15.2;100.0;102310;;;;
2022/08/07 02:56:05;;;;;;;0.4;0.4;;;;;;;15.4;100.0;102310;;;;
2022/08/07 02:57:00;;;;;;;0.4;0.4;;;;;;;15.4;100.0;102310;;;;
2022/08/07 02:58:04;;;;;;;0.4;0.4;;;;;;;15.1;100.0;102310;;;;
2022/08/07 02:59:02;;;;;;;0.4;0.4;;;;;;;15.1;100.0;102310;;;;
2022/08/07 03:00:05;;;;;;;0.4;0.4;;;;;;;15.2;100.0;102310;;;;
2022/08/07 03:01:01;;;;;;;0.4;0.4;;;;;;;15.2;100.0;102310;;;;
2022/08/07 03:02:02;;;;;;;0.4;0.4;;;;;;;15.2;100.0;102310;;;;
2022/08/07 03:03:06;;;;;;;0.4;0.4;;;;;;;15.2;100.0;102310;;;;
2022/08/07 03:04:07;;;;;;;0.4;0.4;;;;;;;15.2;100.0;102310;;;;
2022/08/07 03:05:06;;;;;;;0.4;0.4;;;;;;;15.2;100.0;102310;;;;
2022/08/07 03:06:01;;;;;;;0.4;0.4;;;;;;;15.2;100.0;102310;;;;
2022/08/07 03:07:07;;;;;;;0.5;0.5;;;;;;;15.2;100.0;102310;;;;
2022/08/07 03:08:10;;;;;;;0.5;0.5;;;;;;;15.2;100.0;102310;;;;
2022/08/07 03:09:01;;;;;;;0.5;0.5;;;;;;;15.2;100.0;102310;;;;
2022/08/07 03:10:02;;;;;;;0.5;0.5;;;;;;;15.2;100.0;102300;;;;
2022/08/07 03:11:00;;;;;;;0.5;0.5;;;;;;;15.2;100.0;102300;;;;
2022/08/07 03:12:04;;;;;;;0.5;0.5;;;;;;;15.1;100.0;102310;;;;
2022/08/07 03:13:00;;;;;;;0.5;0.5;;;;;;;15.1;100.0;102310;;;;
2022/08/07 03:14:02;;;;;;;0.5;0.5;;;;;;;15.1;100.0;102310;;;;
2022/08/07 03:15:08;;;;;;;0.5;0.5;;;;;;;15.1;100.0;102310;;;;
2022/08/07 03:16:01;;;;;;;0.5;0.5;;;;;;;15.1;100.0;102310;;;;
2022/08/07 03:17:04;;;;;;;0.5;0.5;;;;;;;15.1;100.0;102310;;;;
2022/08/07 03:18:00;;;;;;;0.5;0.5;;;;;;;14.9;100.0;102310;;;;
2022/08/07 03:19:00;;;;;;;0.5;0.5;;;;;;;14.9;100.0;102310;;;;
2022/08/07 03:20:00;;;;;;;0.5;0.5;;;;;;;15.0;100.0;102310;;;;
2022/08/07 03:21:00;;;;;;;0.5;0.5;;;;;;;15.0;100.0;102310;;;;
2022/08/07 03:22:01;;;;;;;0.5;0.5;;;;;;;15.1;100.0;102310;;;;
2022/08/07 03:23:01;;;;;;;0.5;0.5;;;;;;;15.1;100.0;102310;;;;
2022/08/07 03:24:10;;;;;;;0.5;0.5;;;;;;;14.9;100.0;102320;;;;
2022/08/07 03:25:00;;;;;;;0.5;0.5;;;;;;;14.9;100.0;102320;;;;
2022/08/07 03:26:01;;;;;;;0.5;0.5;;;;;;;15.0;100.0;102310;;;;
2022/08/07 03:27:03;;;;;;;0.5;0.5;;;;;;;15.0;100.0;102310;;;;
2022/08/07 03:28:11;;;;;;;0.5;0.5;;;;;;;15.0;100.0;102310;;;;
2022/08/07 03:29:02;;;;;;;0.5;0.5;;;;;;;15.0;100.0;102310;;;;
2022/08/07 03:30:00;;;;;;;0.5;0.5;;;;;;;15.0;100.0;102310;;;;
2022/08/07 03:32:03;;;;;;;0.5;0.5;;;;;;;15.1;100.0;102300;;;;
2022/08/07 03:33:01;;;;;;;0.5;0.5;;;;;;;15.1;100.0;102300;;;;
2022/08/07 03:34:01;;;;;;;0.5;0.5;;;;;;;14.9;100.0;102310;;;;
2022/08/07 03:35:12;;;;;;;0.5;0.5;;;;;;;14.9;100.0;102310;;;;
2022/08/07 03:36:02;;;;;;;0.5;0.5;;;;;;;14.9;100.0;102300;;;;
2022/08/07 03:37:11;;;;;;;0.5;0.5;;;;;;;14.9;100.0;102300;;;;
2022/08/07 03:38:04;;;;;;;0.5;0.5;;;;;;;14.9;100.0;102300;;;;
2022/08/07 03:39:05;;;;;;;0.5;0.5;;;;;;;14.9;100.0;102300;;;;
2022/08/07 03:40:10;;;;;;;0.5;0.5;;;;;;;15.0;100.0;102300;;;;
2022/08/07 03:41:00;;;;;;;0.5;0.5;;;;;;;15.0;100.0;102300;;;;
2022/08/07 03:42:02;;;;;;;0.5;0.5;;;;;;;15.0;100.0;102300;;;;
2022/08/07 03:43:00;;;;;;;0.5;0.5;;;;;;;15.0;100.0;102300;;;;
2022/08/07 03:44:00;;;;;;;0.5;0.5;;;;;;;14.8;100.0;102300;;;;
2022/08/07 03:45:01;;;;;;;0.5;0.5;;;;;;;14.8;100.0;102300;;;;
2022/08/07 03:46:03;;;;;;;0.5;0.5;;;;;;;14.8;100.0;102300;;;;
2022/08/07 03:47:10;;;;;;;1.2;0.7;;;;;;;14.8;100.0;102300;;;;
2022/08/07 03:48:00;;;;;;;1.2;0.7;;;;;;;14.9;100.0;102300;;;;
2022/08/07 03:49:03;;;;;;;1.2;0.7;;;;;;;14.9;100.0;102300;;;;
2022/08/07 03:50:03;;;;;;;1.2;0.7;;;;;;;14.9;100.0;102300;;;;
2022/08/07 03:51:01;;;;;;;1.2;0.7;;;;;;;14.9;100.0;102300;;;;
2022/08/07 03:52:02;;;;;;;1.2;0.7;;;;;;;14.8;100.0;102300;;;;
2022/08/07 03:53:00;;;;;;;1.2;0.7;;;;;;;14.8;100.0;102300;;;;
2022/08/07 03:54:10;;;;;;;1.2;0.7;;;;;;;14.9;100.0;102300;;;;
2022/08/07 03:55:07;;;;;;;1.2;0.7;;;;;;;14.9;100.0;102300;;;;
2022/08/07 03:56:05;;;;;;;1.2;0.7;;;;;;;14.8;100.0;102300;;;;
2022/08/07 03:57:07;;;;;;;1.2;0.7;;;;;;;14.8;100.0;102300;;;;
2022/08/07 03:58:10;;;;;;;1.2;0.7;;;;;;;14.6;100.0;102310;;;;
2022/08/07 03:59:10;;;;;;;1.2;0.7;;;;;;;14.6;100.0;102310;;;;
2022/08/07 04:00:04;;;;;;;1.2;0.7;;;;;;;14.5;100.0;102310;;;;
2022/08/07 04:01:01;;;;;;;1.2;0.7;;;;;;;14.5;100.0;102310;;;;
2022/08/07 04:02:01;;;;;;;1.2;0.7;;;;;;;14.6;100.0;102310;;;;
2022/08/07 04:03:04;;;;;;;1.2;0.7;;;;;;;14.6;100.0;102310;;;;
2022/08/07 04:04:05;;;;;;;1.2;0.7;;;;;;;14.7;100.0;102310;;;;
2022/08/07 04:05:00;;;;;;;1.2;0.7;;;;;;;14.7;100.0;102310;;;;
2022/08/07 04:06:00;;;;;;;1.2;0.7;;;;;;;14.7;100.0;102310;;;;
2022/08/07 04:07:00;;;;;;;0.5;0.5;;;;;;;14.7;100.0;102310;;;;
2022/08/07 04:08:00;;;;;;;0.5;0.5;;;;;;;14.7;100.0;102310;;;;
2022/08/07 04:09:02;;;;;;;0.5;0.5;;;;;;;14.7;100.0;102310;;;;
2022/08/07 04:10:02;;;;;;;0.5;0.5;;;;;;;14.7;100.0;102310;;;;
2022/08/07 04:11:10;;;;;;;0.5;0.5;;;;;;;14.7;100.0;102310;;;;
2022/08/07 04:12:10;;;;;;;0.5;0.5;;;;;;;14.7;100.0;102310;;;;
2022/08/07 04:13:02;;;;;;;0.5;0.5;;;;;;;14.7;100.0;102310;;;;
2022/08/07 04:14:10;;;;;;;0.5;0.5;;;;;;;14.7;100.0;102310;;;;
2022/08/07 04:15:00;;;;;;;0.5;0.5;;;;;;;14.7;100.0;102310;;;;
2022/08/07 04:16:00;;;;;;;0.5;0.5;;;;;;;14.6;100.0;102310;;;;
2022/08/07 04:17:03;;;;;;;0.5;0.5;;;;;;;14.6;100.0;102310;;;;
2022/08/07 04:18:10;;;;;;;0.5;0.5;;;;;;;14.6;100.0;102320;;;;
2022/08/07 04:19:04;;;;;;;0.5;0.5;;;;;;;14.6;100.0;102320;;;;
2022/08/07 04:20:01;;;;;;;0.5;0.5;;;;;;;14.6;100.0;102320;;;;
2022/08/07 04:21:00;;;;;;;0.5;0.5;;;;;;;14.6;100.0;102320;;;;
2022/08/07 04:22:10;;;;;;;0.5;0.5;;;;;;;14.6;100.0;102320;;;;
2022/08/07 04:23:02;;;;;;;0.5;0.5;;;;;;;14.6;100.0;102320;;;;
2022/08/07 04:24:09;;;;;;;0.5;0.5;;;;;;;14.5;100.0;102330;;;;
2022/08/07 04:25:02;;;;;;;0.5;0.5;;;;;;;14.5;100.0;102330;;;;
2022/08/07 04:26:03;;;;;;;0.5;0.5;;;;;;;14.5;100.0;102320;;;;
2022/08/07 04:27:01;;;;;;;0.5;0.5;;;;;;;14.5;100.0;102320;;;;
2022/08/07 04:28:01;;;;;;;0.5;0.5;;;;;;;14.5;100.0;102320;;;;
2022/08/07 04:29:00;;;;;;;0.5;0.5;;;;;;;14.5;100.0;102320;;;;
2022/08/07 04:30:05;;;;;;;0.5;0.5;;;;;;;14.5;100.0;102320;;;;
2022/08/07 04:31:03;;;;;;;0.5;0.5;;;;;;;14.5;100.0;102320;;;;
2022/08/07 04:32:10;;;;;;;0.5;0.5;;;;;;;14.5;100.0;102320;;;;
2022/08/07 04:33:07;;;;;;;0.5;0.5;;;;;;;14.5;100.0;102320;;;;
2022/08/07 04:34:00;;;;;;;0.5;0.5;;;;;;;14.5;100.0;102330;;;;
2022/08/07 04:35:04;;;;;;;0.5;0.5;;;;;;;14.5;100.0;102330;;;;
2022/08/07 04:36:09;;;;;;;0.5;0.5;;;;;;;14.6;100.0;102330;;;;
2022/08/07 04:37:00;;;;;;;0.5;0.5;;;;;;;14.6;100.0;102330;;;;
2022/08/07 04:38:07;;;;;;;0.5;0.5;;;;;;;14.5;100.0;102330;;;;
2022/08/07 04:39:01;;;;;;;0.5;0.5;;;;;;;14.5;100.0;102330;;;;
2022/08/07 04:40:01;;;;;;;0.5;0.5;;;;;;;14.6;100.0;102330;;;;
2022/08/07 04:41:00;;;;;;;0.5;0.5;;;;;;;14.6;100.0;102330;;;;
2022/08/07 04:42:01;;;;;;;0.5;0.5;;;;;;;14.5;100.0;102330;;;;
2022/08/07 04:43:03;;;;;;;0.5;0.5;;;;;;;14.5;100.0;102330;;;;
2022/08/07 04:44:10;;;;;;;0.5;0.5;;;;;;;14.4;100.0;102330;;;;
2022/08/07 04:45:10;;;;;;;0.5;0.5;;;;;;;14.4;100.0;102330;;;;
2022/08/07 04:46:12;;;;;;;0.5;0.5;;;;;;;14.5;100.0;102330;;;;
2022/08/07 04:47:08;;;;;;;0.5;0.5;;;;;;;14.5;100.0;102330;;;;
2022/08/07 04:48:11;;;;;;;0.5;0.5;;;;;;;14.5;100.0;102330;;;;
2022/08/07 04:49:20;;;;;;;0.5;0.5;;;;;;;14.5;100.0;102330;;;;
2022/08/07 04:50:05;;;;;;;0.5;0.5;;;;;;;14.5;100.0;102330;;;;
2022/08/07 04:51:10;;;;;;;0.5;0.5;;;;;;;14.5;100.0;102330;;;;
2022/08/07 04:52:00;;;;;;;0.5;0.5;;;;;;;14.5;100.0;102330;;;;
2022/08/07 04:53:09;;;;;;;0.5;0.5;;;;;;;14.5;100.0;102330;;;;
2022/08/07 04:54:06;;;;;;;0.5;0.5;;;;;;;14.6;100.0;102340;;;;
2022/08/07 04:55:20;;;;;;;0.5;0.5;;;;;;;14.6;100.0;102340;;;;
2022/08/07 04:56:15;;;;;;;0.5;0.5;;;;;;;14.6;100.0;102340;;;;
2022/08/07 04:57:16;;;;;;;0.5;0.5;;;;;;;14.6;100.0;102340;;;;
2022/08/07 04:58:20;;;;;;;0.5;0.5;;;;;;;14.6;100.0;102340;;;;
2022/08/07 04:59:16;;;;;;;0.5;0.5;;;;;;;14.6;100.0;102340;;;;
2022/08/07 05:00:19;;;;;;;0.5;0.5;;;;;;;14.5;100.0;102340;;;;
2022/08/07 05:01:02;;;;;;;0.5;0.5;;;;;;;14.5;100.0;102340;;;;
2022/08/07 05:02:07;;;;;;;0.5;0.5;;;;;;;14.4;100.0;102340;;;;
2022/08/07 05:03:20;;;;;;;0.5;0.5;;;;;;;14.4;100.0;102340;;;;
2022/08/07 05:04:09;;;;;;;0.5;0.5;;;;;;;14.4;100.0;102340;;;;
2022/08/07 05:05:12;;;;;;;0.5;0.5;;;;;;;14.4;100.0;102340;;;;
2022/08/07 05:06:19;;;;;;;0.5;0.5;;;;;;;14.5;100.0;102340;;;;
2022/08/07 05:07:16;;;;;;;0.5;0.5;;;;;;;14.5;100.0;102340;;;;
2022/08/07 05:08:08;;;;;;;0.5;0.5;;;;;;;14.5;100.0;102340;;;;
2022/08/07 05:09:02;;;;;;;0.5;0.5;;;;;;;14.5;100.0;102340;;;;
2022/08/07 05:10:11;;;;;;;0.5;0.5;;;;;;;14.4;100.0;102340;;;;
2022/08/07 05:11:09;;;;;;;0.5;0.5;;;;;;;14.4;100.0;102340;;;;
2022/08/07 05:12:04;;;;;;;0.5;0.5;;;;;;;14.3;100.0;102340;;;;
2022/08/07 05:13:15;;;;;;;0.5;0.5;;;;;;;14.3;100.0;102340;;;;
2022/08/07 05:14:14;;;;;;;0.5;0.5;;;;;;;14.5;100.0;102340;;;;
2022/08/07 05:15:17;;;;;;;0.5;0.5;;;;;;;14.5;100.0;102340;;;;
2022/08/07 05:16:04;;;;;;;0.5;0.5;;;;;;;14.6;100.0;102340;;;;
2022/08/07 05:17:06;;;;;;;0.5;0.5;;;;;;;14.6;100.0;102340;;;;
2022/08/07 05:18:09;;;;;;;0.5;0.5;;;;;;;14.5;100.0;102350;;;;
2022/08/07 05:19:02;;;;;;;0.5;0.5;;;;;;;14.5;100.0;102350;;;;
2022/08/07 05:20:00;;;;;;;0.5;0.5;;;;;;;14.4;100.0;102340;;;;
2022/08/07 05:21:04;;;;;;;0.5;0.5;;;;;;;14.4;100.0;102340;;;;
2022/08/07 05:22:04;;;;;;;0.5;0.5;;;;;;;14.5;100.0;102350;;;;
2022/08/07 05:23:02;;;;;;;0.5;0.5;;;;;;;14.5;100.0;102350;;;;
2022/08/07 05:24:01;;;;;;;0.5;0.5;;;;;;;14.5;100.0;102350;;;;
2022/08/07 05:25:00;;;;;;;0.5;0.5;;;;;;;14.5;100.0;102350;;;;
2022/08/07 05:26:11;;;;;;;0.4;0.4;;;;;;;14.6;100.0;102350;;;;
2022/08/07 05:27:02;;;;;;;0.4;0.4;;;;;;;14.6;100.0;102350;;;;
2022/08/07 05:28:10;;;;;;;0.4;0.4;;;;;;;14.6;100.0;102350;;;;
2022/08/07 05:29:04;;;;;;;0.4;0.4;;;;;;;14.6;100.0;102350;;;;
2022/08/07 05:30:00;;;;;;;0.4;0.4;;;;;;;14.6;100.0;102350;;;;
2022/08/07 05:31:01;;;;;;;0.4;0.4;;;;;;;14.6;100.0;102350;;;;
2022/08/07 05:32:03;;;;;;;0.4;0.4;;;;;;;14.6;100.0;102350;;;;
2022/08/07 05:33:03;;;;;;;0.4;0.4;;;;;;;14.6;100.0;102350;;;;
2022/08/07 05:34:10;;;;;;;0.4;0.4;;;;;;;14.5;100.0;102360;;;;
2022/08/07 05:35:02;;;;;;;0.4;0.4;;;;;;;14.5;100.0;102360;;;;
2022/08/07 05:36:00;;;;;;;0.4;0.4;;;;;;;14.5;100.0;102360;;;;
2022/08/07 05:37:06;;;;;;;0.4;0.4;;;;;;;14.5;100.0;102360;;;;
2022/08/07 05:38:09;;;;;;;0.4;0.4;;;;;;;14.6;100.0;102360;;;;
2022/08/07 05:39:10;;;;;;;0.4;0.4;;;;;;;14.6;100.0;102360;;;;
2022/08/07 05:40:10;;;;;;;0.4;0.4;;;;;;;14.7;100.0;102350;;;;
2022/08/07 05:41:00;;;;;;;0.4;0.4;;;;;;;14.7;100.0;102350;;;;
2022/08/07 05:42:07;;;;;;;0.4;0.4;;;;;;;14.8;100.0;102350;;;;
2022/08/07 05:43:00;;;;;;;0.4;0.4;;;;;;;14.8;100.0;102350;;;;
2022/08/07 05:44:10;;;;;;;0.4;0.4;;;;;;;14.8;100.0;102360;;;;
2022/08/07 05:45:11;;;;;;;0.4;0.4;;;;;;;14.8;100.0;102360;;;;
2022/08/07 05:46:01;;;;;;;0.4;0.4;;;;;;;14.8;100.0;102350;;;;
2022/08/07 05:47:01;;;;;;;0.5;0.5;;;;;;;14.8;100.0;102350;;;;
2022/08/07 05:48:03;;;;;;;0.5;0.5;;;;;;;14.9;100.0;102360;;;;
2022/08/07 05:49:10;;;;;;;0.5;0.5;;;;;;;14.9;100.0;102360;;;;
2022/08/07 05:50:00;;;;;;;0.5;0.5;;;;;;;14.8;100.0;102360;;;;
2022/08/07 05:51:01;;;;;;;0.5;0.5;;;;;;;14.8;100.0;102360;;;;
2022/08/07 05:52:00;;;;;;;0.5;0.5;;;;;;;14.9;100.0;102360;;;;
2022/08/07 05:53:01;;;;;;;0.5;0.5;;;;;;;14.9;100.0;102360;;;;
2022/08/07 05:54:10;;;;;;;0.5;0.5;;;;;;;15.1;100.0;102360;;;;
2022/08/07 05:55:10;;;;;;;0.5;0.5;;;;;;;15.1;100.0;102360;;;;
2022/08/07 05:56:06;;;;;;;0.5;0.5;;;;;;;15.1;100.0;102360;;;;
2022/08/07 05:57:03;;;;;;;0.5;0.5;;;;;;;15.1;100.0;102360;;;;
2022/08/07 05:58:02;;;;;;;0.5;0.5;;;;;;;15.1;100.0;102360;;;;
2022/08/07 05:59:01;;;;;;;0.5;0.5;;;;;;;15.1;100.0;102360;;;;
2022/08/07 06:00:01;;;;;;;0.5;0.5;;;;;;;15.2;100.0;102360;;;;
2022/08/07 06:01:05;;;;;;;0.5;0.5;;;;;;;15.2;100.0;102360;;;;
2022/08/07 06:02:03;;;;;;;0.5;0.5;;;;;;;15.3;100.0;102360;;;;
2022/08/07 06:03:04;;;;;;;0.5;0.5;;;;;;;15.3;100.0;102360;;;;
2022/08/07 06:04:02;;;;;;;0.5;0.5;;;;;;;15.3;100.0;102360;;;;
2022/08/07 06:05:04;;;;;;;0.5;0.5;;;;;;;15.3;100.0;102360;;;;
2022/08/07 06:06:00;;;;;;;0.4;0.4;;;;;;;15.3;100.0;102360;;;;
2022/08/07 06:07:04;;;;;;;0.4;0.4;;;;;;;15.3;100.0;102360;;;;
2022/08/07 06:08:10;;;;;;;0.4;0.4;;;;;;;15.4;100.0;102360;;;;
2022/08/07 06:09:01;;;;;;;0.4;0.4;;;;;;;15.4;100.0;102360;;;;
2022/08/07 06:10:06;;;;;;;0.4;0.4;;;;;;;15.4;100.0;102370;;;;
2022/08/07 06:11:04;;;;;;;0.4;0.4;;;;;;;15.4;100.0;102370;;;;
2022/08/07 06:12:00;;;;;;;0.4;0.4;;;;;;;15.4;100.0;102370;;;;
2022/08/07 06:13:02;;;;;;;0.4;0.4;;;;;;;15.4;100.0;102370;;;;
2022/08/07 06:14:10;;;;;;;0.4;0.4;;;;;;;15.5;100.0;102370;;;;
2022/08/07 06:15:05;;;;;;;0.4;0.4;;;;;;;15.5;100.0;102370;;;;
2022/08/07 06:16:02;;;;;;;0.4;0.4;;;;;;;15.5;100.0;102370;;;;
2022/08/07 06:17:08;;;;;;;0.4;0.4;;;;;;;15.5;100.0;102370;;;;
2022/08/07 06:18:01;;;;;;;0.4;0.4;;;;;;;15.6;100.0;102370;;;;
2022/08/07 06:19:00;;;;;;;0.4;0.4;;;;;;;15.6;100.0;102370;;;;
2022/08/07 06:20:04;;;;;;;0.4;0.4;;;;;;;15.7;100.0;102370;;;;
2022/08/07 06:21:10;;;;;;;0.4;0.4;;;;;;;15.7;100.0;102370;;;;
2022/08/07 06:22:10;;;;;;;0.4;0.4;;;;;;;15.7;100.0;102370;;;;
2022/08/07 06:23:11;;;;;;;0.4;0.4;;;;;;;15.7;100.0;102370;;;;